sensor_id;sensor_type;location;lat;lon;timestamp;temperature;humidity
41694;DHT22;27377;50.666;9.150;2024-01-07T00:01:00;4.10;99.90
41694;DHT22;27377;50.666;9.150;2024-01-07T00:03:26;4.10;99.90
41694;DHT22;27377;50.666;9.150;2024-01-07T00:05:51;4.10;99.90
41694;DHT22;27377;50.666;9.150;2024-01-07T00:08:17;4.10;99.90
41694;DHT22;27377;50.666;9.150;2024-01-07T00:10:42;4.10;99.90
41694;DHT22;27377;50.666;9.150;2024-01-07T00:13:08;4.10;99.90
41694;DHT22;27377;50.666;9.150;2024-01-07T00:15:33;4.10;99.90
41694;DHT22;27377;50.666;9.150;2024-01-07T00:17:59;4.10;99.90
41694;DHT22;27377;50.666;9.150;2024-01-07T00:20:24;4.20;99.90
41694;DHT22;27377;50.666;9.150;2024-01-07T00:22:50;4.20;99.90
41694;DHT22;27377;50.666;9.150;2024-01-07T00:25:15;4.20;99.90
41694;DHT22;27377;50.666;9.150;2024-01-07T00:27:41;4.20;99.90
41694;DHT22;27377;50.666;9.150;2024-01-07T00:30:07;4.20;99.90
41694;DHT22;27377;50.666;9.150;2024-01-07T00:32:33;4.20;99.90
41694;DHT22;27377;50.666;9.150;2024-01-07T00:34:58;4.20;99.90
41694;DHT22;27377;50.666;9.150;2024-01-07T00:37:24;4.30;99.90
41694;DHT22;27377;50.666;9.150;2024-01-07T00:39:49;4.30;99.90
41694;DHT22;27377;50.666;9.150;2024-01-07T00:42:15;4.30;99.90
41694;DHT22;27377;50.666;9.150;2024-01-07T00:44:40;4.30;99.90
41694;DHT22;27377;50.666;9.150;2024-01-07T00:47:06;4.40;99.90
41694;DHT22;27377;50.666;9.150;2024-01-07T00:49:31;4.30;99.90
41694;DHT22;27377;50.666;9.150;2024-01-07T00:51:57;4.40;99.90
41694;DHT22;27377;50.666;9.150;2024-01-07T00:54:22;4.30;99.90
41694;DHT22;27377;50.666;9.150;2024-01-07T00:56:48;4.40;99.90
41694;DHT22;27377;50.666;9.150;2024-01-07T00:59:13;4.40;99.90
41694;DHT22;27377;50.666;9.150;2024-01-07T01:01:39;4.40;99.90
41694;DHT22;27377;50.666;9.150;2024-01-07T01:04:04;4.40;99.90
41694;DHT22;27377;50.666;9.150;2024-01-07T01:06:30;4.40;99.90
41694;DHT22;27377;50.666;9.150;2024-01-07T01:08:55;4.40;99.90
41694;DHT22;27377;50.666;9.150;2024-01-07T01:11:21;4.50;99.90
41694;DHT22;27377;50.666;9.150;2024-01-07T01:13:46;4.40;99.90
41694;DHT22;27377;50.666;9.150;2024-01-07T01:16:12;4.40;99.90
41694;DHT22;27377;50.666;9.150;2024-01-07T01:18:38;4.40;99.90
41694;DHT22;27377;50.666;9.150;2024-01-07T01:21:04;4.50;99.90
41694;DHT22;27377;50.666;9.150;2024-01-07T01:23:29;4.50;99.90
41694;DHT22;27377;50.666;9.150;2024-01-07T01:25:55;4.50;99.90
41694;DHT22;27377;50.666;9.150;2024-01-07T01:28:20;4.50;99.90
41694;DHT22;27377;50.666;9.150;2024-01-07T01:30:46;4.50;99.90
41694;DHT22;27377;50.666;9.150;2024-01-07T01:33:12;4.50;99.90
41694;DHT22;27377;50.666;9.150;2024-01-07T01:35:37;4.50;99.90
41694;DHT22;27377;50.666;9.150;2024-01-07T01:38:03;4.50;99.90
41694;DHT22;27377;50.666;9.150;2024-01-07T01:40:29;4.50;99.90
41694;DHT22;27377;50.666;9.150;2024-01-07T01:42:54;4.50;99.90
41694;DHT22;27377;50.666;9.150;2024-01-07T01:45:20;4.40;99.90
41694;DHT22;27377;50.666;9.150;2024-01-07T01:47:46;4.40;99.90
41694;DHT22;27377;50.666;9.150;2024-01-07T01:50:13;4.40;99.90
41694;DHT22;27377;50.666;9.150;2024-01-07T01:52:43;4.40;99.90
41694;DHT22;27377;50.666;9.150;2024-01-07T01:55:09;4.40;99.90
41694;DHT22;27377;50.666;9.150;2024-01-07T01:57:37;4.40;99.90
41694;DHT22;27377;50.666;9.150;2024-01-07T02:00:07;4.50;99.90
41694;DHT22;27377;50.666;9.150;2024-01-07T02:02:33;4.50;99.90
41694;DHT22;27377;50.666;9.150;2024-01-07T02:05:03;4.40;99.90
41694;DHT22;27377;50.666;9.150;2024-01-07T02:07:30;4.50;99.90
41694;DHT22;27377;50.666;9.150;2024-01-07T02:09:55;4.50;99.90
41694;DHT22;27377;50.666;9.150;2024-01-07T02:12:21;4.40;99.90
41694;DHT22;27377;50.666;9.150;2024-01-07T02:14:47;4.40;99.90
41694;DHT22;27377;50.666;9.150;2024-01-07T02:17:15;4.40;99.90
41694;DHT22;27377;50.666;9.150;2024-01-07T02:19:41;4.40;99.90
41694;DHT22;27377;50.666;9.150;2024-01-07T02:22:10;4.40;99.90
41694;DHT22;27377;50.666;9.150;2024-01-07T02:24:39;4.40;99.90
41694;DHT22;27377;50.666;9.150;2024-01-07T02:27:04;4.40;99.90
41694;DHT22;27377;50.666;9.150;2024-01-07T02:29:30;4.40;99.90
41694;DHT22;27377;50.666;9.150;2024-01-07T02:31:56;4.40;99.90
41694;DHT22;27377;50.666;9.150;2024-01-07T02:34:21;4.40;99.90
41694;DHT22;27377;50.666;9.150;2024-01-07T02:36:49;4.40;99.90
41694;DHT22;27377;50.666;9.150;2024-01-07T02:39:15;4.50;99.90
41694;DHT22;27377;50.666;9.150;2024-01-07T02:41:40;4.40;99.90
41694;DHT22;27377;50.666;9.150;2024-01-07T02:44:06;4.40;99.90
41694;DHT22;27377;50.666;9.150;2024-01-07T02:46:31;4.40;99.90
41694;DHT22;27377;50.666;9.150;2024-01-07T02:48:57;4.40;99.90
41694;DHT22;27377;50.666;9.150;2024-01-07T02:51:23;4.40;99.90
41694;DHT22;27377;50.666;9.150;2024-01-07T02:53:48;4.40;99.90
41694;DHT22;27377;50.666;9.150;2024-01-07T02:56:14;4.40;99.90
41694;DHT22;27377;50.666;9.150;2024-01-07T02:58:40;4.40;99.90
41694;DHT22;27377;50.666;9.150;2024-01-07T03:01:09;4.40;99.90
41694;DHT22;27377;50.666;9.150;2024-01-07T03:03:35;4.40;99.90
41694;DHT22;27377;50.666;9.150;2024-01-07T03:06:04;4.40;99.90
41694;DHT22;27377;50.666;9.150;2024-01-07T03:08:30;4.40;99.90
41694;DHT22;27377;50.666;9.150;2024-01-07T03:10:55;4.40;99.90
41694;DHT22;27377;50.666;9.150;2024-01-07T03:13:21;4.30;99.90
41694;DHT22;27377;50.666;9.150;2024-01-07T03:15:50;4.40;99.90
41694;DHT22;27377;50.666;9.150;2024-01-07T03:18:15;4.40;99.90
41694;DHT22;27377;50.666;9.150;2024-01-07T03:20:41;4.40;99.90
41694;DHT22;27377;50.666;9.150;2024-01-07T03:23:06;4.40;99.90
41694;DHT22;27377;50.666;9.150;2024-01-07T03:25:32;4.40;99.90
41694;DHT22;27377;50.666;9.150;2024-01-07T03:27:57;4.30;99.90
41694;DHT22;27377;50.666;9.150;2024-01-07T03:30:23;4.30;99.90
41694;DHT22;27377;50.666;9.150;2024-01-07T03:32:49;4.30;99.90
41694;DHT22;27377;50.666;9.150;2024-01-07T03:35:14;4.20;99.90
41694;DHT22;27377;50.666;9.150;2024-01-07T03:37:43;4.20;99.90
41694;DHT22;27377;50.666;9.150;2024-01-07T03:40:15;4.20;99.90
41694;DHT22;27377;50.666;9.150;2024-01-07T03:42:41;4.20;99.90
41694;DHT22;27377;50.666;9.150;2024-01-07T03:45:07;4.20;99.90
41694;DHT22;27377;50.666;9.150;2024-01-07T03:47:32;4.20;99.90
41694;DHT22;27377;50.666;9.150;2024-01-07T03:49:58;4.20;99.90
41694;DHT22;27377;50.666;9.150;2024-01-07T03:52:24;4.10;99.90
41694;DHT22;27377;50.666;9.150;2024-01-07T03:54:49;4.10;99.90
41694;DHT22;27377;50.666;9.150;2024-01-07T03:57:15;4.10;99.90
41694;DHT22;27377;50.666;9.150;2024-01-07T03:59:40;4.10;99.90
41694;DHT22;27377;50.666;9.150;2024-01-07T04:02:06;4.20;99.90
41694;DHT22;27377;50.666;9.150;2024-01-07T04:04:32;4.10;99.90
41694;DHT22;27377;50.666;9.150;2024-01-07T04:06:58;4.20;99.90
41694;DHT22;27377;50.666;9.150;2024-01-07T04:09:23;4.10;99.90
41694;DHT22;27377;50.666;9.150;2024-01-07T04:11:52;4.10;99.90
41694;DHT22;27377;50.666;9.150;2024-01-07T04:14:17;4.10;99.90
41694;DHT22;27377;50.666;9.150;2024-01-07T04:16:43;4.10;99.90
41694;DHT22;27377;50.666;9.150;2024-01-07T04:19:11;4.10;99.90
41694;DHT22;27377;50.666;9.150;2024-01-07T04:21:40;4.10;99.90
41694;DHT22;27377;50.666;9.150;2024-01-07T04:24:10;4.10;99.90
41694;DHT22;27377;50.666;9.150;2024-01-07T04:26:36;4.10;99.90
41694;DHT22;27377;50.666;9.150;2024-01-07T04:29:01;4.00;99.90
41694;DHT22;27377;50.666;9.150;2024-01-07T04:31:27;4.10;99.90
41694;DHT22;27377;50.666;9.150;2024-01-07T04:33:52;4.00;99.90
41694;DHT22;27377;50.666;9.150;2024-01-07T04:36:18;4.00;99.90
41694;DHT22;27377;50.666;9.150;2024-01-07T04:38:43;4.00;99.90
41694;DHT22;27377;50.666;9.150;2024-01-07T04:41:09;4.00;99.90
41694;DHT22;27377;50.666;9.150;2024-01-07T04:43:35;4.00;99.90
41694;DHT22;27377;50.666;9.150;2024-01-07T04:46:01;4.00;99.90
41694;DHT22;27377;50.666;9.150;2024-01-07T04:48:27;3.90;99.90
41694;DHT22;27377;50.666;9.150;2024-01-07T04:50:52;3.90;99.90
41694;DHT22;27377;50.666;9.150;2024-01-07T04:53:18;3.90;99.90
41694;DHT22;27377;50.666;9.150;2024-01-07T04:55:43;3.90;99.90
41694;DHT22;27377;50.666;9.150;2024-01-07T04:58:09;3.90;99.90
41694;DHT22;27377;50.666;9.150;2024-01-07T05:00:34;3.90;99.90
41694;DHT22;27377;50.666;9.150;2024-01-07T05:03:00;3.90;99.90
41694;DHT22;27377;50.666;9.150;2024-01-07T05:05:26;3.90;99.90
41694;DHT22;27377;50.666;9.150;2024-01-07T05:07:51;3.80;99.90
41694;DHT22;27377;50.666;9.150;2024-01-07T05:10:17;3.80;99.90
41694;DHT22;27377;50.666;9.150;2024-01-07T05:12:42;3.70;99.90
41694;DHT22;27377;50.666;9.150;2024-01-07T05:15:08;3.70;99.90
41694;DHT22;27377;50.666;9.150;2024-01-07T05:17:34;3.70;99.90
41694;DHT22;27377;50.666;9.150;2024-01-07T05:20:00;3.70;99.90
41694;DHT22;27377;50.666;9.150;2024-01-07T05:22:25;3.70;99.90
41694;DHT22;27377;50.666;9.150;2024-01-07T05:24:51;3.70;99.90
41694;DHT22;27377;50.666;9.150;2024-01-07T05:27:16;3.70;99.90
41694;DHT22;27377;50.666;9.150;2024-01-07T05:29:45;3.70;99.90
41694;DHT22;27377;50.666;9.150;2024-01-07T05:32:14;3.70;99.90
41694;DHT22;27377;50.666;9.150;2024-01-07T05:34:40;3.70;99.90
41694;DHT22;27377;50.666;9.150;2024-01-07T05:37:06;3.70;99.90
41694;DHT22;27377;50.666;9.150;2024-01-07T05:39:31;3.70;99.90
41694;DHT22;27377;50.666;9.150;2024-01-07T05:41:57;3.70;99.90
41694;DHT22;27377;50.666;9.150;2024-01-07T05:44:22;3.60;99.90
41694;DHT22;27377;50.666;9.150;2024-01-07T05:46:48;3.60;99.90
41694;DHT22;27377;50.666;9.150;2024-01-07T05:49:13;3.60;99.90
41694;DHT22;27377;50.666;9.150;2024-01-07T05:51:40;3.60;99.90
41694;DHT22;27377;50.666;9.150;2024-01-07T05:54:06;3.60;99.90
41694;DHT22;27377;50.666;9.150;2024-01-07T05:56:31;3.70;99.90
41694;DHT22;27377;50.666;9.150;2024-01-07T05:58:57;3.70;99.90
41694;DHT22;27377;50.666;9.150;2024-01-07T06:01:22;3.60;99.90
41694;DHT22;27377;50.666;9.150;2024-01-07T06:03:48;3.70;99.90
41694;DHT22;27377;50.666;9.150;2024-01-07T06:06:14;3.60;99.90
41694;DHT22;27377;50.666;9.150;2024-01-07T06:08:41;3.70;99.90
41694;DHT22;27377;50.666;9.150;2024-01-07T06:11:07;3.70;99.90
41694;DHT22;27377;50.666;9.150;2024-01-07T06:13:33;3.60;99.90
41694;DHT22;27377;50.666;9.150;2024-01-07T06:15:59;3.60;99.90
41694;DHT22;27377;50.666;9.150;2024-01-07T06:18:24;3.60;99.90
41694;DHT22;27377;50.666;9.150;2024-01-07T06:20:50;3.60;99.90
41694;DHT22;27377;50.666;9.150;2024-01-07T06:23:15;3.50;99.90
41694;DHT22;27377;50.666;9.150;2024-01-07T06:25:41;3.50;99.90
41694;DHT22;27377;50.666;9.150;2024-01-07T06:28:07;3.40;99.90
41694;DHT22;27377;50.666;9.150;2024-01-07T06:30:32;3.50;99.90
41694;DHT22;27377;50.666;9.150;2024-01-07T06:32:59;3.40;99.90
41694;DHT22;27377;50.666;9.150;2024-01-07T06:35:24;3.50;99.90
41694;DHT22;27377;50.666;9.150;2024-01-07T06:37:50;3.50;99.90
41694;DHT22;27377;50.666;9.150;2024-01-07T06:40:15;3.50;99.90
41694;DHT22;27377;50.666;9.150;2024-01-07T06:42:41;3.50;99.90
41694;DHT22;27377;50.666;9.150;2024-01-07T06:45:07;3.40;99.90
41694;DHT22;27377;50.666;9.150;2024-01-07T06:47:33;3.50;99.90
41694;DHT22;27377;50.666;9.150;2024-01-07T06:49:59;3.50;99.90
41694;DHT22;27377;50.666;9.150;2024-01-07T06:52:24;3.50;99.90
41694;DHT22;27377;50.666;9.150;2024-01-07T06:54:50;3.40;99.90
41694;DHT22;27377;50.666;9.150;2024-01-07T06:57:15;3.40;99.90
41694;DHT22;27377;50.666;9.150;2024-01-07T06:59:41;3.40;99.90
41694;DHT22;27377;50.666;9.150;2024-01-07T07:02:06;3.50;99.90
41694;DHT22;27377;50.666;9.150;2024-01-07T07:04:32;3.50;99.90
41694;DHT22;27377;50.666;9.150;2024-01-07T07:06:57;3.50;99.90
41694;DHT22;27377;50.666;9.150;2024-01-07T07:09:23;3.50;99.90
41694;DHT22;27377;50.666;9.150;2024-01-07T07:11:49;3.50;99.90
41694;DHT22;27377;50.666;9.150;2024-01-07T07:14:14;3.40;99.90
41694;DHT22;27377;50.666;9.150;2024-01-07T07:16:40;3.40;99.90
41694;DHT22;27377;50.666;9.150;2024-01-07T07:19:07;3.40;99.90
41694;DHT22;27377;50.666;9.150;2024-01-07T07:21:36;3.40;99.90
41694;DHT22;27377;50.666;9.150;2024-01-07T07:24:02;3.40;99.90
41694;DHT22;27377;50.666;9.150;2024-01-07T07:26:28;3.40;99.90
41694;DHT22;27377;50.666;9.150;2024-01-07T07:28:53;3.40;99.90
41694;DHT22;27377;50.666;9.150;2024-01-07T07:31:21;3.40;99.90
41694;DHT22;27377;50.666;9.150;2024-01-07T07:33:47;3.30;99.90
41694;DHT22;27377;50.666;9.150;2024-01-07T07:36:12;3.30;99.90
41694;DHT22;27377;50.666;9.150;2024-01-07T07:38:38;3.20;99.90
41694;DHT22;27377;50.666;9.150;2024-01-07T07:41:04;3.20;99.90
41694;DHT22;27377;50.666;9.150;2024-01-07T07:43:29;3.20;99.90
41694;DHT22;27377;50.666;9.150;2024-01-07T07:45:55;3.20;99.90
41694;DHT22;27377;50.666;9.150;2024-01-07T07:48:23;3.10;99.90
41694;DHT22;27377;50.666;9.150;2024-01-07T07:50:51;3.10;99.90
41694;DHT22;27377;50.666;9.150;2024-01-07T07:53:17;3.20;99.90
41694;DHT22;27377;50.666;9.150;2024-01-07T07:55:42;3.10;99.90
41694;DHT22;27377;50.666;9.150;2024-01-07T07:58:10;3.20;99.90
41694;DHT22;27377;50.666;9.150;2024-01-07T08:00:36;3.20;99.90
41694;DHT22;27377;50.666;9.150;2024-01-07T08:03:03;3.20;99.90
41694;DHT22;27377;50.666;9.150;2024-01-07T08:05:29;3.20;99.90
41694;DHT22;27377;50.666;9.150;2024-01-07T08:07:55;3.20;99.90
41694;DHT22;27377;50.666;9.150;2024-01-07T08:10:22;3.20;99.90
41694;DHT22;27377;50.666;9.150;2024-01-07T08:12:48;3.20;99.90
41694;DHT22;27377;50.666;9.150;2024-01-07T08:15:15;3.20;99.90
41694;DHT22;27377;50.666;9.150;2024-01-07T08:17:40;3.20;99.90
41694;DHT22;27377;50.666;9.150;2024-01-07T08:20:06;3.20;99.90
41694;DHT22;27377;50.666;9.150;2024-01-07T08:22:32;3.10;99.90
41694;DHT22;27377;50.666;9.150;2024-01-07T08:24:58;3.10;99.90
41694;DHT22;27377;50.666;9.150;2024-01-07T08:27:23;3.10;99.90
41694;DHT22;27377;50.666;9.150;2024-01-07T08:29:49;3.10;99.90
41694;DHT22;27377;50.666;9.150;2024-01-07T08:32:14;3.00;99.90
41694;DHT22;27377;50.666;9.150;2024-01-07T08:34:40;3.00;99.90
41694;DHT22;27377;50.666;9.150;2024-01-07T08:37:07;3.00;99.90
41694;DHT22;27377;50.666;9.150;2024-01-07T08:39:33;3.00;99.90
41694;DHT22;27377;50.666;9.150;2024-01-07T08:42:01;3.00;99.90
41694;DHT22;27377;50.666;9.150;2024-01-07T08:44:27;3.00;99.90
41694;DHT22;27377;50.666;9.150;2024-01-07T08:46:55;3.00;99.90
41694;DHT22;27377;50.666;9.150;2024-01-07T08:49:25;2.90;99.90
41694;DHT22;27377;50.666;9.150;2024-01-07T08:51:51;3.00;99.90
41694;DHT22;27377;50.666;9.150;2024-01-07T08:54:17;3.00;99.90
41694;DHT22;27377;50.666;9.150;2024-01-07T08:56:45;3.00;99.90
41694;DHT22;27377;50.666;9.150;2024-01-07T08:59:11;3.00;99.90
41694;DHT22;27377;50.666;9.150;2024-01-07T09:01:36;3.00;99.90
41694;DHT22;27377;50.666;9.150;2024-01-07T09:04:02;2.90;99.90
41694;DHT22;27377;50.666;9.150;2024-01-07T09:06:28;2.90;99.90
41694;DHT22;27377;50.666;9.150;2024-01-07T09:08:56;2.90;99.90
41694;DHT22;27377;50.666;9.150;2024-01-07T09:11:22;2.90;99.90
41694;DHT22;27377;50.666;9.150;2024-01-07T09:13:52;2.90;99.90
41694;DHT22;27377;50.666;9.150;2024-01-07T09:16:17;2.90;99.90
41694;DHT22;27377;50.666;9.150;2024-01-07T09:18:43;2.90;99.90
41694;DHT22;27377;50.666;9.150;2024-01-07T09:21:11;2.80;99.90
41694;DHT22;27377;50.666;9.150;2024-01-07T09:23:37;2.80;99.90
41694;DHT22;27377;50.666;9.150;2024-01-07T09:26:03;2.90;99.90
41694;DHT22;27377;50.666;9.150;2024-01-07T09:28:29;2.90;99.90
41694;DHT22;27377;50.666;9.150;2024-01-07T09:30:54;2.90;99.90
41694;DHT22;27377;50.666;9.150;2024-01-07T09:33:20;2.90;99.90
41694;DHT22;27377;50.666;9.150;2024-01-07T09:35:48;2.90;99.90
41694;DHT22;27377;50.666;9.150;2024-01-07T09:38:13;2.80;99.90
41694;DHT22;27377;50.666;9.150;2024-01-07T09:40:39;2.80;99.90
41694;DHT22;27377;50.666;9.150;2024-01-07T09:43:08;2.90;99.90
41694;DHT22;27377;50.666;9.150;2024-01-07T09:45:36;2.90;99.90
41694;DHT22;27377;50.666;9.150;2024-01-07T09:48:04;2.90;99.90
41694;DHT22;27377;50.666;9.150;2024-01-07T09:50:30;2.90;99.90
41694;DHT22;27377;50.666;9.150;2024-01-07T09:52:57;2.80;99.90
41694;DHT22;27377;50.666;9.150;2024-01-07T09:55:33;2.90;99.90
41694;DHT22;27377;50.666;9.150;2024-01-07T09:57:59;2.80;99.90
41694;DHT22;27377;50.666;9.150;2024-01-07T10:00:26;2.80;99.90
41694;DHT22;27377;50.666;9.150;2024-01-07T10:02:52;2.80;99.90
41694;DHT22;27377;50.666;9.150;2024-01-07T10:05:18;2.80;99.90
41694;DHT22;27377;50.666;9.150;2024-01-07T10:07:43;2.70;99.90
41694;DHT22;27377;50.666;9.150;2024-01-07T10:10:16;2.70;99.90
41694;DHT22;27377;50.666;9.150;2024-01-07T10:12:48;2.70;99.90
41694;DHT22;27377;50.666;9.150;2024-01-07T10:15:14;2.70;99.90
41694;DHT22;27377;50.666;9.150;2024-01-07T10:17:42;2.70;99.90
41694;DHT22;27377;50.666;9.150;2024-01-07T10:20:08;2.60;99.90
41694;DHT22;27377;50.666;9.150;2024-01-07T10:22:38;2.60;99.90
41694;DHT22;27377;50.666;9.150;2024-01-07T10:25:04;2.60;99.90
41694;DHT22;27377;50.666;9.150;2024-01-07T10:27:30;2.60;99.90
41694;DHT22;27377;50.666;9.150;2024-01-07T10:29:58;2.60;99.90
41694;DHT22;27377;50.666;9.150;2024-01-07T10:32:24;2.70;99.90
41694;DHT22;27377;50.666;9.150;2024-01-07T10:34:53;2.60;99.90
41694;DHT22;27377;50.666;9.150;2024-01-07T10:37:19;2.60;99.90
41694;DHT22;27377;50.666;9.150;2024-01-07T10:39:49;2.60;99.90
41694;DHT22;27377;50.666;9.150;2024-01-07T10:42:22;2.50;99.90
41694;DHT22;27377;50.666;9.150;2024-01-07T10:45:10;2.60;99.90
41694;DHT22;27377;50.666;9.150;2024-01-07T10:47:36;2.60;99.90
41694;DHT22;27377;50.666;9.150;2024-01-07T10:50:11;2.50;99.90
41694;DHT22;27377;50.666;9.150;2024-01-07T10:52:45;2.60;99.90
41694;DHT22;27377;50.666;9.150;2024-01-07T10:55:13;2.60;99.90
41694;DHT22;27377;50.666;9.150;2024-01-07T10:57:45;2.60;99.90
41694;DHT22;27377;50.666;9.150;2024-01-07T11:00:18;2.50;99.90
41694;DHT22;27377;50.666;9.150;2024-01-07T11:11:36;2.40;99.90
41694;DHT22;27377;50.666;9.150;2024-01-07T11:14:03;2.50;99.90
41694;DHT22;27377;50.666;9.150;2024-01-07T11:16:47;2.50;99.90
41694;DHT22;27377;50.666;9.150;2024-01-07T11:19:16;2.50;99.90
41694;DHT22;27377;50.666;9.150;2024-01-07T11:21:48;2.50;99.90
41694;DHT22;27377;50.666;9.150;2024-01-07T11:24:38;2.50;99.90
41694;DHT22;27377;50.666;9.150;2024-01-07T11:27:04;2.50;99.90
41694;DHT22;27377;50.666;9.150;2024-01-07T11:29:31;2.50;99.90
41694;DHT22;27377;50.666;9.150;2024-01-07T11:32:00;2.50;99.90
41694;DHT22;27377;50.666;9.150;2024-01-07T11:34:41;2.40;99.90
41694;DHT22;27377;50.666;9.150;2024-01-07T11:37:15;2.50;99.90
41694;DHT22;27377;50.666;9.150;2024-01-07T11:39:48;2.50;99.90
41694;DHT22;27377;50.666;9.150;2024-01-07T11:42:34;2.40;99.90
41694;DHT22;27377;50.666;9.150;2024-01-07T11:45:00;2.40;99.90
41694;DHT22;27377;50.666;9.150;2024-01-07T11:47:25;2.40;99.90
41694;DHT22;27377;50.666;9.150;2024-01-07T11:49:53;2.40;99.90
41694;DHT22;27377;50.666;9.150;2024-01-07T11:52:19;2.50;99.90
41694;DHT22;27377;50.666;9.150;2024-01-07T11:54:46;2.50;99.90
41694;DHT22;27377;50.666;9.150;2024-01-07T11:57:13;2.50;99.90
41694;DHT22;27377;50.666;9.150;2024-01-07T11:59:39;2.40;99.90
41694;DHT22;27377;50.666;9.150;2024-01-07T12:02:05;2.40;99.90
41694;DHT22;27377;50.666;9.150;2024-01-07T12:04:31;2.40;99.90
41694;DHT22;27377;50.666;9.150;2024-01-07T12:06:57;2.40;99.90
41694;DHT22;27377;50.666;9.150;2024-01-07T12:09:22;2.30;99.90
41694;DHT22;27377;50.666;9.150;2024-01-07T12:11:48;2.30;99.90
41694;DHT22;27377;50.666;9.150;2024-01-07T12:14:14;2.30;99.90
41694;DHT22;27377;50.666;9.150;2024-01-07T12:16:40;2.30;99.90
41694;DHT22;27377;50.666;9.150;2024-01-07T12:19:05;2.30;99.90
41694;DHT22;27377;50.666;9.150;2024-01-07T12:21:31;2.30;99.90
41694;DHT22;27377;50.666;9.150;2024-01-07T12:23:57;2.40;99.90
41694;DHT22;27377;50.666;9.150;2024-01-07T12:26:27;2.30;99.90
41694;DHT22;27377;50.666;9.150;2024-01-07T12:28:54;2.30;99.90
41694;DHT22;27377;50.666;9.150;2024-01-07T12:31:26;2.30;99.90
41694;DHT22;27377;50.666;9.150;2024-01-07T12:33:52;2.30;99.90
41694;DHT22;27377;50.666;9.150;2024-01-07T12:36:25;2.30;99.90
41694;DHT22;27377;50.666;9.150;2024-01-07T12:38:52;2.30;99.90
41694;DHT22;27377;50.666;9.150;2024-01-07T12:41:20;2.20;99.90
41694;DHT22;27377;50.666;9.150;2024-01-07T12:43:46;2.20;99.90
41694;DHT22;27377;50.666;9.150;2024-01-07T12:46:11;2.30;99.90
41694;DHT22;27377;50.666;9.150;2024-01-07T12:48:37;2.20;99.90
41694;DHT22;27377;50.666;9.150;2024-01-07T12:51:02;2.20;99.90
41694;DHT22;27377;50.666;9.150;2024-01-07T12:53:28;2.10;99.90
41694;DHT22;27377;50.666;9.150;2024-01-07T12:55:54;2.10;99.90
41694;DHT22;27377;50.666;9.150;2024-01-07T12:58:20;2.10;99.90
41694;DHT22;27377;50.666;9.150;2024-01-07T13:00:46;2.10;99.90
41694;DHT22;27377;50.666;9.150;2024-01-07T13:03:12;2.10;99.90
41694;DHT22;27377;50.666;9.150;2024-01-07T13:05:46;2.10;99.90
41694;DHT22;27377;50.666;9.150;2024-01-07T13:08:14;2.00;99.90
41694;DHT22;27377;50.666;9.150;2024-01-07T13:10:39;2.10;99.90
41694;DHT22;27377;50.666;9.150;2024-01-07T13:13:05;2.10;99.90
41694;DHT22;27377;50.666;9.150;2024-01-07T13:15:31;2.10;99.90
41694;DHT22;27377;50.666;9.150;2024-01-07T13:17:57;2.10;99.90
41694;DHT22;27377;50.666;9.150;2024-01-07T13:20:23;2.00;99.90
41694;DHT22;27377;50.666;9.150;2024-01-07T13:22:49;2.00;99.90
41694;DHT22;27377;50.666;9.150;2024-01-07T13:25:14;2.00;99.90
41694;DHT22;27377;50.666;9.150;2024-01-07T13:27:40;2.00;99.90
41694;DHT22;27377;50.666;9.150;2024-01-07T13:30:07;1.90;99.90
41694;DHT22;27377;50.666;9.150;2024-01-07T13:32:33;1.90;99.90
41694;DHT22;27377;50.666;9.150;2024-01-07T13:35:05;1.90;99.90
41694;DHT22;27377;50.666;9.150;2024-01-07T13:37:31;1.90;99.90
41694;DHT22;27377;50.666;9.150;2024-01-07T13:39:57;1.90;99.90
41694;DHT22;27377;50.666;9.150;2024-01-07T13:42:22;1.80;99.90
41694;DHT22;27377;50.666;9.150;2024-01-07T13:44:48;1.80;99.90
41694;DHT22;27377;50.666;9.150;2024-01-07T13:47:14;1.80;99.90
41694;DHT22;27377;50.666;9.150;2024-01-07T13:49:43;1.80;99.90
41694;DHT22;27377;50.666;9.150;2024-01-07T13:52:10;1.70;99.90
41694;DHT22;27377;50.666;9.150;2024-01-07T13:54:36;1.70;99.90
41694;DHT22;27377;50.666;9.150;2024-01-07T13:57:03;1.70;99.90
41694;DHT22;27377;50.666;9.150;2024-01-07T13:59:29;1.70;99.90
41694;DHT22;27377;50.666;9.150;2024-01-07T14:01:55;1.70;99.90
41694;DHT22;27377;50.666;9.150;2024-01-07T14:04:22;1.70;99.90
41694;DHT22;27377;50.666;9.150;2024-01-07T14:06:56;1.70;99.90
41694;DHT22;27377;50.666;9.150;2024-01-07T14:09:22;1.70;99.90
41694;DHT22;27377;50.666;9.150;2024-01-07T14:11:47;1.60;99.90
41694;DHT22;27377;50.666;9.150;2024-01-07T14:14:13;1.60;99.90
41694;DHT22;27377;50.666;9.150;2024-01-07T14:16:38;1.60;99.90
41694;DHT22;27377;50.666;9.150;2024-01-07T14:19:05;1.50;99.90
41694;DHT22;27377;50.666;9.150;2024-01-07T14:21:31;1.60;99.90
41694;DHT22;27377;50.666;9.150;2024-01-07T14:23:57;1.60;99.90
41694;DHT22;27377;50.666;9.150;2024-01-07T14:26:22;1.60;99.90
41694;DHT22;27377;50.666;9.150;2024-01-07T14:28:49;1.50;99.90
41694;DHT22;27377;50.666;9.150;2024-01-07T14:31:16;1.50;99.90
41694;DHT22;27377;50.666;9.150;2024-01-07T14:33:42;1.40;99.90
41694;DHT22;27377;50.666;9.150;2024-01-07T14:36:08;1.40;99.90
41694;DHT22;27377;50.666;9.150;2024-01-07T14:38:39;1.50;99.90
41694;DHT22;27377;50.666;9.150;2024-01-07T14:41:05;1.50;99.90
41694;DHT22;27377;50.666;9.150;2024-01-07T14:43:31;1.50;99.90
41694;DHT22;27377;50.666;9.150;2024-01-07T14:45:56;1.40;99.90
41694;DHT22;27377;50.666;9.150;2024-01-07T14:48:22;1.40;99.90
41694;DHT22;27377;50.666;9.150;2024-01-07T14:50:47;1.30;99.90
41694;DHT22;27377;50.666;9.150;2024-01-07T14:53:13;1.30;99.90
41694;DHT22;27377;50.666;9.150;2024-01-07T14:55:45;1.30;99.90
41694;DHT22;27377;50.666;9.150;2024-01-07T14:58:14;1.30;99.90
41694;DHT22;27377;50.666;9.150;2024-01-07T15:00:40;1.30;99.90
41694;DHT22;27377;50.666;9.150;2024-01-07T15:03:05;1.30;99.90
41694;DHT22;27377;50.666;9.150;2024-01-07T15:05:31;1.30;99.90
41694;DHT22;27377;50.666;9.150;2024-01-07T15:07:56;1.30;99.90
41694;DHT22;27377;50.666;9.150;2024-01-07T15:10:22;1.30;99.90
41694;DHT22;27377;50.666;9.150;2024-01-07T15:12:48;1.30;99.90
41694;DHT22;27377;50.666;9.150;2024-01-07T15:15:15;1.30;99.90
41694;DHT22;27377;50.666;9.150;2024-01-07T15:17:41;1.20;99.90
41694;DHT22;27377;50.666;9.150;2024-01-07T15:20:08;1.20;99.90
41694;DHT22;27377;50.666;9.150;2024-01-07T15:22:33;1.20;99.90
41694;DHT22;27377;50.666;9.150;2024-01-07T15:24:59;1.20;99.90
41694;DHT22;27377;50.666;9.150;2024-01-07T15:27:24;1.20;99.90
41694;DHT22;27377;50.666;9.150;2024-01-07T15:29:50;1.20;99.90
41694;DHT22;27377;50.666;9.150;2024-01-07T15:32:15;1.10;99.90
41694;DHT22;27377;50.666;9.150;2024-01-07T15:34:41;1.10;99.90
41694;DHT22;27377;50.666;9.150;2024-01-07T15:37:09;1.10;99.90
41694;DHT22;27377;50.666;9.150;2024-01-07T15:39:35;1.10;99.90
41694;DHT22;27377;50.666;9.150;2024-01-07T15:42:00;1.00;99.90
41694;DHT22;27377;50.666;9.150;2024-01-07T15:44:26;1.00;99.90
41694;DHT22;27377;50.666;9.150;2024-01-07T15:46:52;1.00;99.90
41694;DHT22;27377;50.666;9.150;2024-01-07T15:49:18;1.00;99.90